sensor_id;sensor_type;location;lat;lon;timestamp;temperature;humidity
7117;DHT22;3600;48.568;7.870;2023-04-15T00:01:10;8.00;98.90
7117;DHT22;3600;48.568;7.870;2023-04-15T00:03:37;7.70;98.90
7117;DHT22;3600;48.568;7.870;2023-04-15T00:06:04;7.70;99.10
7117;DHT22;3600;48.568;7.870;2023-04-15T00:08:31;7.60;99.40
7117;DHT22;3600;48.568;7.870;2023-04-15T00:10:58;7.40;99.40
7117;DHT22;3600;48.568;7.870;2023-04-15T00:13:31;7.40;99.50
7117;DHT22;3600;48.568;7.870;2023-04-15T00:16:01;7.00;99.90
7117;DHT22;3600;48.568;7.870;2023-04-15T00:18:28;6.80;99.90
7117;DHT22;3600;48.568;7.870;2023-04-15T00:20:55;6.60;99.90
7117;DHT22;3600;48.568;7.870;2023-04-15T00:23:22;6.70;99.90
7117;DHT22;3600;48.568;7.870;2023-04-15T00:25:49;6.60;99.90
7117;DHT22;3600;48.568;7.870;2023-04-15T00:28:16;6.80;99.90
7117;DHT22;3600;48.568;7.870;2023-04-15T00:30:44;6.90;99.90
7117;DHT22;3600;48.568;7.870;2023-04-15T00:33:12;7.00;99.90
7117;DHT22;3600;48.568;7.870;2023-04-15T00:35:39;6.70;99.90
7117;DHT22;3600;48.568;7.870;2023-04-15T00:38:06;6.40;99.90
7117;DHT22;3600;48.568;7.870;2023-04-15T00:40:36;6.30;99.90
7117;DHT22;3600;48.568;7.870;2023-04-15T00:43:03;6.20;99.90
7117;DHT22;3600;48.568;7.870;2023-04-15T00:45:31;6.20;99.90
7117;DHT22;3600;48.568;7.870;2023-04-15T00:47:59;6.40;99.90
7117;DHT22;3600;48.568;7.870;2023-04-15T00:50:26;6.60;99.90
7117;DHT22;3600;48.568;7.870;2023-04-15T00:52:52;6.60;99.90
7117;DHT22;3600;48.568;7.870;2023-04-15T00:55:19;6.50;99.90
7117;DHT22;3600;48.568;7.870;2023-04-15T00:57:46;6.40;99.90
7117;DHT22;3600;48.568;7.870;2023-04-15T01:00:13;6.40;99.90
7117;DHT22;3600;48.568;7.870;2023-04-15T01:02:40;6.30;99.90
7117;DHT22;3600;48.568;7.870;2023-04-15T01:05:07;6.20;99.90
7117;DHT22;3600;48.568;7.870;2023-04-15T01:07:35;6.10;99.90
7117;DHT22;3600;48.568;7.870;2023-04-15T01:10:05;6.20;99.90
7117;DHT22;3600;48.568;7.870;2023-04-15T01:12:38;6.40;99.90
7117;DHT22;3600;48.568;7.870;2023-04-15T01:15:11;6.50;99.90
7117;DHT22;3600;48.568;7.870;2023-04-15T01:17:41;6.60;99.90
7117;DHT22;3600;48.568;7.870;2023-04-15T01:20:18;6.40;99.90
7117;DHT22;3600;48.568;7.870;2023-04-15T01:22:53;6.50;99.90
7117;DHT22;3600;48.568;7.870;2023-04-15T01:25:42;6.10;99.90
7117;DHT22;3600;48.568;7.870;2023-04-15T01:28:15;5.90;99.90
7117;DHT22;3600;48.568;7.870;2023-04-15T01:30:47;6.10;99.90
7117;DHT22;3600;48.568;7.870;2023-04-15T01:33:25;6.30;99.90
7117;DHT22;3600;48.568;7.870;2023-04-15T01:35:54;6.40;99.90
7117;DHT22;3600;48.568;7.870;2023-04-15T01:38:24;6.00;99.90
7117;DHT22;3600;48.568;7.870;2023-04-15T01:40:51;5.80;99.90
7117;DHT22;3600;48.568;7.870;2023-04-15T01:43:20;5.60;99.90
7117;DHT22;3600;48.568;7.870;2023-04-15T01:45:50;5.90;99.90
7117;DHT22;3600;48.568;7.870;2023-04-15T01:48:20;6.20;99.90
7117;DHT22;3600;48.568;7.870;2023-04-15T01:50:49;5.80;99.90
7117;DHT22;3600;48.568;7.870;2023-04-15T01:53:17;6.00;99.90
7117;DHT22;3600;48.568;7.870;2023-04-15T01:55:45;6.20;99.90
7117;DHT22;3600;48.568;7.870;2023-04-15T01:58:20;5.90;99.90
7117;DHT22;3600;48.568;7.870;2023-04-15T02:00:58;5.70;99.90
7117;DHT22;3600;48.568;7.870;2023-04-15T02:03:28;5.70;99.90
7117;DHT22;3600;48.568;7.870;2023-04-15T02:06:07;5.60;99.90
7117;DHT22;3600;48.568;7.870;2023-04-15T02:09:02;5.60;99.90
7117;DHT22;3600;48.568;7.870;2023-04-15T02:12:00;5.80;99.90
7117;DHT22;3600;48.568;7.870;2023-04-15T02:15:25;5.90;99.90
7117;DHT22;3600;48.568;7.870;2023-04-15T02:28:11;5.40;99.90
7117;DHT22;3600;48.568;7.870;2023-04-15T02:31:20;5.40;99.90
7117;DHT22;3600;48.568;7.870;2023-04-15T02:34:19;5.60;99.90
7117;DHT22;3600;48.568;7.870;2023-04-15T02:37:39;5.60;99.90
7117;DHT22;3600;48.568;7.870;2023-04-15T02:41:03;5.40;99.90
7117;DHT22;3600;48.568;7.870;2023-04-15T02:44:28;5.50;99.90
7117;DHT22;3600;48.568;7.870;2023-04-15T02:51:22;5.70;99.90
7117;DHT22;3600;48.568;7.870;2023-04-15T02:54:19;5.90;99.90
7117;DHT22;3600;48.568;7.870;2023-04-15T02:57:26;5.80;99.90
7117;DHT22;3600;48.568;7.870;2023-04-15T03:00:07;5.80;99.90
7117;DHT22;3600;48.568;7.870;2023-04-15T03:03:08;5.90;99.90
7117;DHT22;3600;48.568;7.870;2023-04-15T03:05:53;6.00;99.90
7117;DHT22;3600;48.568;7.870;2023-04-15T03:11:32;6.20;99.90
7117;DHT22;3600;48.568;7.870;2023-04-15T03:14:05;5.90;99.90
7117;DHT22;3600;48.568;7.870;2023-04-15T03:16:54;5.80;99.90
7117;DHT22;3600;48.568;7.870;2023-04-15T03:19:37;5.60;99.90
7117;DHT22;3600;48.568;7.870;2023-04-15T03:22:16;5.50;99.90
7117;DHT22;3600;48.568;7.870;2023-04-15T03:25:00;5.70;99.90
7117;DHT22;3600;48.568;7.870;2023-04-15T03:27:40;6.00;99.90
7117;DHT22;3600;48.568;7.870;2023-04-15T03:30:15;5.90;99.90
7117;DHT22;3600;48.568;7.870;2023-04-15T03:33:10;5.80;99.90
7117;DHT22;3600;48.568;7.870;2023-04-15T03:35:43;5.90;99.90
7117;DHT22;3600;48.568;7.870;2023-04-15T03:38:26;5.80;99.90
7117;DHT22;3600;48.568;7.870;2023-04-15T03:41:19;5.60;99.90
7117;DHT22;3600;48.568;7.870;2023-04-15T03:43:58;5.50;99.90
7117;DHT22;3600;48.568;7.870;2023-04-15T03:49:47;4.90;99.90
7117;DHT22;3600;48.568;7.870;2023-04-15T03:52:45;4.70;99.90
7117;DHT22;3600;48.568;7.870;2023-04-15T03:56:05;4.70;99.90
7117;DHT22;3600;48.568;7.870;2023-04-15T03:59:26;4.10;99.90
7117;DHT22;3600;48.568;7.870;2023-04-15T04:08:48;4.70;99.90
7117;DHT22;3600;48.568;7.870;2023-04-15T04:11:14;4.90;99.90
7117;DHT22;3600;48.568;7.870;2023-04-15T04:13:41;5.00;99.90
7117;DHT22;3600;48.568;7.870;2023-04-15T04:16:08;5.00;99.90
7117;DHT22;3600;48.568;7.870;2023-04-15T04:18:35;4.80;99.90
7117;DHT22;3600;48.568;7.870;2023-04-15T04:21:01;4.60;99.90
7117;DHT22;3600;48.568;7.870;2023-04-15T04:23:28;4.60;99.90
7117;DHT22;3600;48.568;7.870;2023-04-15T04:25:55;4.50;99.90
7117;DHT22;3600;48.568;7.870;2023-04-15T04:28:22;4.50;99.90
7117;DHT22;3600;48.568;7.870;2023-04-15T04:30:49;4.50;99.90
7117;DHT22;3600;48.568;7.870;2023-04-15T04:33:16;4.60;99.90
7117;DHT22;3600;48.568;7.870;2023-04-15T04:35:42;4.70;99.90
7117;DHT22;3600;48.568;7.870;2023-04-15T04:38:09;4.80;99.90
7117;DHT22;3600;48.568;7.870;2023-04-15T04:40:36;4.80;99.90
7117;DHT22;3600;48.568;7.870;2023-04-15T04:43:03;4.70;99.90
7117;DHT22;3600;48.568;7.870;2023-04-15T04:45:30;4.80;99.90
7117;DHT22;3600;48.568;7.870;2023-04-15T04:47:57;5.00;99.90
7117;DHT22;3600;48.568;7.870;2023-04-15T04:50:24;4.90;99.90
7117;DHT22;3600;48.568;7.870;2023-04-15T04:52:51;5.00;99.90
7117;DHT22;3600;48.568;7.870;2023-04-15T04:55:18;5.10;99.90
7117;DHT22;3600;48.568;7.870;2023-04-15T04:57:45;5.10;99.90
7117;DHT22;3600;48.568;7.870;2023-04-15T05:00:12;5.10;99.90
7117;DHT22;3600;48.568;7.870;2023-04-15T05:02:39;5.10;99.90
7117;DHT22;3600;48.568;7.870;2023-04-15T05:05:08;5.00;99.90
7117;DHT22;3600;48.568;7.870;2023-04-15T05:07:35;5.00;99.90
7117;DHT22;3600;48.568;7.870;2023-04-15T05:10:03;5.00;99.90
7117;DHT22;3600;48.568;7.870;2023-04-15T05:12:30;5.10;99.90
7117;DHT22;3600;48.568;7.870;2023-04-15T05:14:57;4.90;99.90
7117;DHT22;3600;48.568;7.870;2023-04-15T05:17:24;4.80;99.90
7117;DHT22;3600;48.568;7.870;2023-04-15T05:19:51;4.80;99.90
7117;DHT22;3600;48.568;7.870;2023-04-15T05:22:19;5.00;99.90
7117;DHT22;3600;48.568;7.870;2023-04-15T05:24:46;5.10;99.90
7117;DHT22;3600;48.568;7.870;2023-04-15T05:27:13;5.00;99.90
7117;DHT22;3600;48.568;7.870;2023-04-15T05:29:39;5.20;99.90
7117;DHT22;3600;48.568;7.870;2023-04-15T05:32:06;5.20;99.90
7117;DHT22;3600;48.568;7.870;2023-04-15T05:34:33;5.20;99.90
7117;DHT22;3600;48.568;7.870;2023-04-15T05:37:00;5.30;99.90
7117;DHT22;3600;48.568;7.870;2023-04-15T05:39:26;5.40;99.90
7117;DHT22;3600;48.568;7.870;2023-04-15T05:41:53;5.50;99.90
7117;DHT22;3600;48.568;7.870;2023-04-15T05:44:20;5.50;99.90
7117;DHT22;3600;48.568;7.870;2023-04-15T05:46:47;5.60;99.90
7117;DHT22;3600;48.568;7.870;2023-04-15T05:49:13;5.70;99.90
7117;DHT22;3600;48.568;7.870;2023-04-15T05:51:40;5.90;99.90
7117;DHT22;3600;48.568;7.870;2023-04-15T05:54:07;6.00;99.90
7117;DHT22;3600;48.568;7.870;2023-04-15T05:56:34;6.20;99.90
7117;DHT22;3600;48.568;7.870;2023-04-15T05:59:00;6.30;99.90
7117;DHT22;3600;48.568;7.870;2023-04-15T06:01:28;6.40;99.90
7117;DHT22;3600;48.568;7.870;2023-04-15T06:03:55;6.40;99.90
7117;DHT22;3600;48.568;7.870;2023-04-15T06:06:22;6.40;99.90
7117;DHT22;3600;48.568;7.870;2023-04-15T06:08:49;6.40;99.90
7117;DHT22;3600;48.568;7.870;2023-04-15T06:11:16;6.40;99.90
7117;DHT22;3600;48.568;7.870;2023-04-15T06:13:43;6.50;99.90
7117;DHT22;3600;48.568;7.870;2023-04-15T06:16:10;6.40;99.90
7117;DHT22;3600;48.568;7.870;2023-04-15T06:18:37;6.30;99.90
7117;DHT22;3600;48.568;7.870;2023-04-15T06:21:04;6.30;99.90
7117;DHT22;3600;48.568;7.870;2023-04-15T06:23:33;6.20;99.90
7117;DHT22;3600;48.568;7.870;2023-04-15T06:26:01;6.30;99.90
7117;DHT22;3600;48.568;7.870;2023-04-15T06:28:28;6.40;99.90
7117;DHT22;3600;48.568;7.870;2023-04-15T06:30:55;6.50;99.90
7117;DHT22;3600;48.568;7.870;2023-04-15T06:33:22;6.50;99.90
7117;DHT22;3600;48.568;7.870;2023-04-15T06:35:48;6.50;99.90
7117;DHT22;3600;48.568;7.870;2023-04-15T06:38:15;6.50;99.90
7117;DHT22;3600;48.568;7.870;2023-04-15T06:40:42;6.50;99.90
7117;DHT22;3600;48.568;7.870;2023-04-15T06:43:09;6.40;99.90
7117;DHT22;3600;48.568;7.870;2023-04-15T06:45:35;6.20;99.90
7117;DHT22;3600;48.568;7.870;2023-04-15T06:48:02;6.30;99.90
7117;DHT22;3600;48.568;7.870;2023-04-15T06:50:29;6.30;99.90
7117;DHT22;3600;48.568;7.870;2023-04-15T06:52:56;6.50;99.90
7117;DHT22;3600;48.568;7.870;2023-04-15T06:55:23;6.40;99.90
7117;DHT22;3600;48.568;7.870;2023-04-15T06:57:49;6.40;99.90
7117;DHT22;3600;48.568;7.870;2023-04-15T07:00:17;6.60;99.90
7117;DHT22;3600;48.568;7.870;2023-04-15T07:02:43;6.70;99.90
7117;DHT22;3600;48.568;7.870;2023-04-15T07:05:10;6.70;99.90
7117;DHT22;3600;48.568;7.870;2023-04-15T07:07:38;7.00;99.90
7117;DHT22;3600;48.568;7.870;2023-04-15T07:10:05;6.90;99.90
7117;DHT22;3600;48.568;7.870;2023-04-15T07:12:32;7.10;99.90
7117;DHT22;3600;48.568;7.870;2023-04-15T07:14:59;7.10;99.90
7117;DHT22;3600;48.568;7.870;2023-04-15T07:17:25;7.20;99.90
7117;DHT22;3600;48.568;7.870;2023-04-15T07:19:52;7.40;99.90
7117;DHT22;3600;48.568;7.870;2023-04-15T07:22:19;7.20;99.90
7117;DHT22;3600;48.568;7.870;2023-04-15T07:24:46;7.30;99.90
7117;DHT22;3600;48.568;7.870;2023-04-15T07:27:13;7.40;99.90
7117;DHT22;3600;48.568;7.870;2023-04-15T07:29:39;7.30;99.90
7117;DHT22;3600;48.568;7.870;2023-04-15T07:32:06;7.40;99.90
7117;DHT22;3600;48.568;7.870;2023-04-15T07:34:33;7.50;99.90
7117;DHT22;3600;48.568;7.870;2023-04-15T07:37:00;7.50;99.90
7117;DHT22;3600;48.568;7.870;2023-04-15T07:39:27;7.60;99.90
7117;DHT22;3600;48.568;7.870;2023-04-15T07:41:55;7.60;99.90
7117;DHT22;3600;48.568;7.870;2023-04-15T07:44:22;7.80;99.90
7117;DHT22;3600;48.568;7.870;2023-04-15T07:46:49;7.80;99.90
7117;DHT22;3600;48.568;7.870;2023-04-15T07:49:16;7.70;99.90
7117;DHT22;3600;48.568;7.870;2023-04-15T07:51:44;7.80;99.90
7117;DHT22;3600;48.568;7.870;2023-04-15T07:54:11;7.90;99.90
7117;DHT22;3600;48.568;7.870;2023-04-15T07:56:38;8.00;99.90
7117;DHT22;3600;48.568;7.870;2023-04-15T07:59:04;8.10;99.90
7117;DHT22;3600;48.568;7.870;2023-04-15T08:01:32;8.20;99.90
7117;DHT22;3600;48.568;7.870;2023-04-15T08:03:58;8.30;99.90
7117;DHT22;3600;48.568;7.870;2023-04-15T08:06:26;8.30;99.90
7117;DHT22;3600;48.568;7.870;2023-04-15T08:08:53;8.30;99.90
7117;DHT22;3600;48.568;7.870;2023-04-15T08:11:20;8.40;99.90
7117;DHT22;3600;48.568;7.870;2023-04-15T08:13:47;8.50;99.90
7117;DHT22;3600;48.568;7.870;2023-04-15T08:16:18;8.60;99.90
7117;DHT22;3600;48.568;7.870;2023-04-15T08:18:46;8.80;99.90
7117;DHT22;3600;48.568;7.870;2023-04-15T08:21:13;8.80;99.90
7117;DHT22;3600;48.568;7.870;2023-04-15T08:23:40;8.90;99.90
7117;DHT22;3600;48.568;7.870;2023-04-15T08:26:08;8.90;99.90
7117;DHT22;3600;48.568;7.870;2023-04-15T08:28:39;9.00;99.90
7117;DHT22;3600;48.568;7.870;2023-04-15T08:31:07;9.10;99.90
7117;DHT22;3600;48.568;7.870;2023-04-15T08:33:35;9.10;99.90
7117;DHT22;3600;48.568;7.870;2023-04-15T08:36:01;9.20;99.90
7117;DHT22;3600;48.568;7.870;2023-04-15T08:38:28;9.30;99.90
7117;DHT22;3600;48.568;7.870;2023-04-15T08:40:57;9.30;99.90
7117;DHT22;3600;48.568;7.870;2023-04-15T08:43:33;9.50;99.90
7117;DHT22;3600;48.568;7.870;2023-04-15T08:46:00;9.50;99.90
7117;DHT22;3600;48.568;7.870;2023-04-15T08:48:28;9.60;99.90
7117;DHT22;3600;48.568;7.870;2023-04-15T08:50:55;9.80;99.90
7117;DHT22;3600;48.568;7.870;2023-04-15T08:53:23;9.90;99.90
7117;DHT22;3600;48.568;7.870;2023-04-15T08:55:56;9.90;99.90
7117;DHT22;3600;48.568;7.870;2023-04-15T08:58:23;10.10;99.90
7117;DHT22;3600;48.568;7.870;2023-04-15T09:00:50;10.20;99.90
7117;DHT22;3600;48.568;7.870;2023-04-15T09:03:17;10.20;99.90
7117;DHT22;3600;48.568;7.870;2023-04-15T09:05:45;10.10;99.90
7117;DHT22;3600;48.568;7.870;2023-04-15T09:08:12;10.40;99.90
7117;DHT22;3600;48.568;7.870;2023-04-15T09:10:39;10.60;99.90
7117;DHT22;3600;48.568;7.870;2023-04-15T09:13:06;10.50;99.90
7117;DHT22;3600;48.568;7.870;2023-04-15T09:15:35;10.80;99.70
7117;DHT22;3600;48.568;7.870;2023-04-15T09:18:04;10.60;99.90
7117;DHT22;3600;48.568;7.870;2023-04-15T09:20:39;10.80;99.70
7117;DHT22;3600;48.568;7.870;2023-04-15T09:23:12;11.00;99.50
7117;DHT22;3600;48.568;7.870;2023-04-15T09:25:40;11.10;99.40
7117;DHT22;3600;48.568;7.870;2023-04-15T09:28:08;11.20;99.20
7117;DHT22;3600;48.568;7.870;2023-04-15T09:30:34;11.30;99.40
7117;DHT22;3600;48.568;7.870;2023-04-15T09:33:03;11.30;99.40
7117;DHT22;3600;48.568;7.870;2023-04-15T09:35:34;11.60;99.10
7117;DHT22;3600;48.568;7.870;2023-04-15T09:38:06;11.60;98.70
7117;DHT22;3600;48.568;7.870;2023-04-15T09:40:40;11.80;97.70
7117;DHT22;3600;48.568;7.870;2023-04-15T09:43:09;11.80;97.80
7117;DHT22;3600;48.568;7.870;2023-04-15T09:45:50;11.60;98.40
7117;DHT22;3600;48.568;7.870;2023-04-15T09:48:24;11.90;98.50
7117;DHT22;3600;48.568;7.870;2023-04-15T09:50:57;12.00;98.00
7117;DHT22;3600;48.568;7.870;2023-04-15T09:53:24;12.10;96.70
7117;DHT22;3600;48.568;7.870;2023-04-15T09:55:56;12.20;97.00
7117;DHT22;3600;48.568;7.870;2023-04-15T09:58:25;12.40;96.80
7117;DHT22;3600;48.568;7.870;2023-04-15T10:00:54;12.30;97.10
7117;DHT22;3600;48.568;7.870;2023-04-15T10:03:24;12.30;96.80
7117;DHT22;3600;48.568;7.870;2023-04-15T10:05:52;12.30;96.90
7117;DHT22;3600;48.568;7.870;2023-04-15T10:08:30;12.30;96.80
7117;DHT22;3600;48.568;7.870;2023-04-15T10:11:00;12.40;97.30
7117;DHT22;3600;48.568;7.870;2023-04-15T10:13:30;12.60;97.00
7117;DHT22;3600;48.568;7.870;2023-04-15T10:16:06;12.60;97.50
7117;DHT22;3600;48.568;7.870;2023-04-15T10:18:39;12.70;98.00
7117;DHT22;3600;48.568;7.870;2023-04-15T10:21:08;12.90;97.70
7117;DHT22;3600;48.568;7.870;2023-04-15T10:23:35;13.10;98.30
7117;DHT22;3600;48.568;7.870;2023-04-15T10:26:03;13.30;97.60
7117;DHT22;3600;48.568;7.870;2023-04-15T10:28:30;13.30;97.10
7117;DHT22;3600;48.568;7.870;2023-04-15T10:30:58;13.30;96.80
7117;DHT22;3600;48.568;7.870;2023-04-15T10:33:26;13.60;96.40
7117;DHT22;3600;48.568;7.870;2023-04-15T10:35:54;13.60;96.10
7117;DHT22;3600;48.568;7.870;2023-04-15T10:41:22;13.70;95.80
7117;DHT22;3600;48.568;7.870;2023-04-15T10:44:09;13.80;95.10
7117;DHT22;3600;48.568;7.870;2023-04-15T10:46:44;14.00;94.10
7117;DHT22;3600;48.568;7.870;2023-04-15T10:49:14;13.90;93.80
7117;DHT22;3600;48.568;7.870;2023-04-15T10:51:52;14.00;93.80
7117;DHT22;3600;48.568;7.870;2023-04-15T11:02:06;14.40;93.50
7117;DHT22;3600;48.568;7.870;2023-04-15T11:04:56;14.50;92.60
7117;DHT22;3600;48.568;7.870;2023-04-15T11:09:59;14.60;92.80
7117;DHT22;3600;48.568;7.870;2023-04-15T11:12:36;14.50;93.60
7117;DHT22;3600;48.568;7.870;2023-04-15T11:15:28;14.90;93.10
7117;DHT22;3600;48.568;7.870;2023-04-15T11:18:12;15.00;91.60
7117;DHT22;3600;48.568;7.870;2023-04-15T11:20:41;15.00;90.00
7117;DHT22;3600;48.568;7.870;2023-04-15T11:23:08;15.20;91.30
7117;DHT22;3600;48.568;7.870;2023-04-15T11:25:41;15.30;92.10
7117;DHT22;3600;48.568;7.870;2023-04-15T11:28:10;15.10;92.00
7117;DHT22;3600;48.568;7.870;2023-04-15T11:30:50;15.10;91.90
7117;DHT22;3600;48.568;7.870;2023-04-15T11:33:29;15.30;90.40
7117;DHT22;3600;48.568;7.870;2023-04-15T11:35:56;15.40;89.20
7117;DHT22;3600;48.568;7.870;2023-04-15T11:38:23;15.30;88.70
7117;DHT22;3600;48.568;7.870;2023-04-15T11:40:50;15.30;89.40
7117;DHT22;3600;48.568;7.870;2023-04-15T11:43:19;15.30;86.70
7117;DHT22;3600;48.568;7.870;2023-04-15T11:45:54;15.30;88.90
7117;DHT22;3600;48.568;7.870;2023-04-15T11:48:26;15.60;82.00
7117;DHT22;3600;48.568;7.870;2023-04-15T11:51:02;15.70;83.10
7117;DHT22;3600;48.568;7.870;2023-04-15T11:56:08;16.10;88.40
7117;DHT22;3600;48.568;7.870;2023-04-15T11:58:36;15.80;86.70
7117;DHT22;3600;48.568;7.870;2023-04-15T12:01:04;15.70;87.00
7117;DHT22;3600;48.568;7.870;2023-04-15T12:06:23;15.80;86.00
7117;DHT22;3600;48.568;7.870;2023-04-15T12:11:37;16.20;83.60
7117;DHT22;3600;48.568;7.870;2023-04-15T12:14:08;16.30;81.80
7117;DHT22;3600;48.568;7.870;2023-04-15T12:16:44;16.20;79.50
7117;DHT22;3600;48.568;7.870;2023-04-15T12:19:23;16.00;74.10
7117;DHT22;3600;48.568;7.870;2023-04-15T12:21:56;16.20;78.50
7117;DHT22;3600;48.568;7.870;2023-04-15T12:24:25;16.50;79.50
7117;DHT22;3600;48.568;7.870;2023-04-15T12:26:54;16.50;79.80
7117;DHT22;3600;48.568;7.870;2023-04-15T12:29:27;16.60;75.00
7117;DHT22;3600;48.568;7.870;2023-04-15T12:32:12;16.60;79.30
7117;DHT22;3600;48.568;7.870;2023-04-15T12:34:48;16.70;78.10
7117;DHT22;3600;48.568;7.870;2023-04-15T12:37:15;16.40;70.30
7117;DHT22;3600;48.568;7.870;2023-04-15T12:39:44;16.30;70.80
7117;DHT22;3600;48.568;7.870;2023-04-15T12:42:11;16.10;71.40
7117;DHT22;3600;48.568;7.870;2023-04-15T12:44:38;15.90;68.50
7117;DHT22;3600;48.568;7.870;2023-04-15T12:47:07;15.90;74.70
7117;DHT22;3600;48.568;7.870;2023-04-15T12:49:34;16.20;77.30
7117;DHT22;3600;48.568;7.870;2023-04-15T12:52:02;16.30;76.00
7117;DHT22;3600;48.568;7.870;2023-04-15T12:54:29;16.30;75.00
7117;DHT22;3600;48.568;7.870;2023-04-15T12:56:57;16.30;75.00
7117;DHT22;3600;48.568;7.870;2023-04-15T12:59:24;16.00;77.00
7117;DHT22;3600;48.568;7.870;2023-04-15T13:01:51;16.50;74.20
7117;DHT22;3600;48.568;7.870;2023-04-15T13:04:21;16.40;74.80
7117;DHT22;3600;48.568;7.870;2023-04-15T13:06:48;16.50;76.90
7117;DHT22;3600;48.568;7.870;2023-04-15T13:09:15;16.60;75.40
7117;DHT22;3600;48.568;7.870;2023-04-15T13:11:42;16.40;72.60
7117;DHT22;3600;48.568;7.870;2023-04-15T13:14:09;16.40;74.50
7117;DHT22;3600;48.568;7.870;2023-04-15T13:16:39;16.20;75.30
7117;DHT22;3600;48.568;7.870;2023-04-15T13:19:05;16.10;75.00
7117;DHT22;3600;48.568;7.870;2023-04-15T13:21:32;16.00;73.20
7117;DHT22;3600;48.568;7.870;2023-04-15T13:24:02;16.30;79.90
7117;DHT22;3600;48.568;7.870;2023-04-15T13:26:29;16.30;75.20
7117;DHT22;3600;48.568;7.870;2023-04-15T13:28:57;16.30;77.60
7117;DHT22;3600;48.568;7.870;2023-04-15T13:31:23;16.30;76.30
7117;DHT22;3600;48.568;7.870;2023-04-15T13:33:51;16.00;76.80
7117;DHT22;3600;48.568;7.870;2023-04-15T13:36:17;16.00;81.50
7117;DHT22;3600;48.568;7.870;2023-04-15T13:38:44;16.20;78.60
7117;DHT22;3600;48.568;7.870;2023-04-15T13:41:12;16.10;78.70
7117;DHT22;3600;48.568;7.870;2023-04-15T13:43:39;16.30;82.60
7117;DHT22;3600;48.568;7.870;2023-04-15T13:46:06;16.60;82.20
7117;DHT22;3600;48.568;7.870;2023-04-15T13:48:33;16.80;78.80
7117;DHT22;3600;48.568;7.870;2023-04-15T13:50:59;16.70;78.80
7117;DHT22;3600;48.568;7.870;2023-04-15T13:53:26;16.50;79.60
7117;DHT22;3600;48.568;7.870;2023-04-15T13:56:05;16.40;80.90
7117;DHT22;3600;48.568;7.870;2023-04-15T13:58:31;16.50;82.60
7117;DHT22;3600;48.568;7.870;2023-04-15T14:00:58;16.40;81.70
7117;DHT22;3600;48.568;7.870;2023-04-15T14:03:25;16.40;83.60
7117;DHT22;3600;48.568;7.870;2023-04-15T14:05:52;16.40;82.80
7117;DHT22;3600;48.568;7.870;2023-04-15T14:08:22;16.20;83.50
7117;DHT22;3600;48.568;7.870;2023-04-15T14:10:48;16.20;82.70
7117;DHT22;3600;48.568;7.870;2023-04-15T14:13:15;16.10;84.70
7117;DHT22;3600;48.568;7.870;2023-04-15T14:15:42;16.10;83.20
7117;DHT22;3600;48.568;7.870;2023-04-15T14:18:09;15.90;84.50
7117;DHT22;3600;48.568;7.870;2023-04-15T14:20:35;15.80;84.10
7117;DHT22;3600;48.568;7.870;2023-04-15T14:23:02;15.90;83.90
7117;DHT22;3600;48.568;7.870;2023-04-15T14:25:29;16.00;85.10
7117;DHT22;3600;48.568;7.870;2023-04-15T14:27:59;16.10;86.50
7117;DHT22;3600;48.568;7.870;2023-04-15T14:30:26;16.00;83.50
7117;DHT22;3600;48.568;7.870;2023-04-15T14:32:53;15.90;85.40
7117;DHT22;3600;48.568;7.870;2023-04-15T14:35:20;15.90;87.40
7117;DHT22;3600;48.568;7.870;2023-04-15T14:37:47;15.90;87.60
7117;DHT22;3600;48.568;7.870;2023-04-15T14:40:14;16.10;88.00
7117;DHT22;3600;48.568;7.870;2023-04-15T14:42:41;16.10;85.40
7117;DHT22;3600;48.568;7.870;2023-04-15T14:45:08;16.10;84.20
7117;DHT22;3600;48.568;7.870;2023-04-15T14:47:35;15.60;82.70
7117;DHT22;3600;48.568;7.870;2023-04-15T14:50:03;15.50;85.90
7117;DHT22;3600;48.568;7.870;2023-04-15T14:52:30;15.60;87.20
7117;DHT22;3600;48.568;7.870;2023-04-15T14:55:06;15.60;85.60
7117;DHT22;3600;48.568;7.870;2023-04-15T14:57:37;15.80;86.00
7117;DHT22;3600;48.568;7.870;2023-04-15T15:00:04;15.70;84.90
7117;DHT22;3600;48.568;7.870;2023-04-15T15:02:33;15.70;86.90
7117;DHT22;3600;48.568;7.870;2023-04-15T15:05:06;15.70;83.40
7117;DHT22;3600;48.568;7.870;2023-04-15T15:07:33;15.70;87.60
7117;DHT22;3600;48.568;7.870;2023-04-15T15:10:01;15.60;83.20
7117;DHT22;3600;48.568;7.870;2023-04-15T15:12:28;15.60;85.10
7117;DHT22;3600;48.568;7.870;2023-04-15T15:14:55;15.50;86.50
7117;DHT22;3600;48.568;7.870;2023-04-15T15:17:22;15.70;87.70
7117;DHT22;3600;48.568;7.870;2023-04-15T15:19:49;15.70;88.00
7117;DHT22;3600;48.568;7.870;2023-04-15T15:22:16;15.60;83.00
7117;DHT22;3600;48.568;7.870;2023-04-15T15:24:46;15.50;82.90
7117;DHT22;3600;48.568;7.870;2023-04-15T15:27:13;15.40;84.50
7117;DHT22;3600;48.568;7.870;2023-04-15T15:29:40;15.50;87.70
7117;DHT22;3600;48.568;7.870;2023-04-15T15:32:07;15.60;85.60
7117;DHT22;3600;48.568;7.870;2023-04-15T15:34:34;15.60;76.90
7117;DHT22;3600;48.568;7.870;2023-04-15T15:37:00;15.60;77.80
7117;DHT22;3600;48.568;7.870;2023-04-15T15:39:27;15.50;75.20
7117;DHT22;3600;48.568;7.870;2023-04-15T15:41:54;15.60;73.70
7117;DHT22;3600;48.568;7.870;2023-04-15T15:44:21;15.50;72.30
7117;DHT22;3600;48.568;7.870;2023-04-15T15:46:49;15.60;75.30
7117;DHT22;3600;48.568;7.870;2023-04-15T15:49:16;15.40;72.10
7117;DHT22;3600;48.568;7.870;2023-04-15T15:51:43;15.30;71.80
7117;DHT22;3600;48.568;7.870;2023-04-15T15:54:11;15.20;73.20
7117;DHT22;3600;48.568;7.870;2023-04-15T15:56:38;15.20;70.80
7117;DHT22;3600;48.568;7.870;2023-04-15T15:59:05;15.10;71.50
7117;DHT22;3600;48.568;7.870;2023-04-15T16:01:32;15.10;70.30
7117;DHT22;3600;48.568;7.870;2023-04-15T16:03:59;15.00;67.10
7117;DHT22;3600;48.568;7.870;2023-04-15T16:06:26;15.00;65.30
7117;DHT22;3600;48.568;7.870;2023-04-15T16:08:53;15.00;66.20
7117;DHT22;3600;48.568;7.870;2023-04-15T16:11:20;14.90;64.10
7117;DHT22;3600;48.568;7.870;2023-04-15T16:13:47;14.80;66.00
7117;DHT22;3600;48.568;7.870;2023-04-15T16:16:14;14.80;66.90
7117;DHT22;3600;48.568;7.870;2023-04-15T16:18:41;14.70;66.00
7117;DHT22;3600;48.568;7.870;2023-04-15T16:21:08;14.70;65.90
7117;DHT22;3600;48.568;7.870;2023-04-15T16:23:35;14.70;66.80
7117;DHT22;3600;48.568;7.870;2023-04-15T16:26:02;14.70;68.20
7117;DHT22;3600;48.568;7.870;2023-04-15T16:28:29;14.70;68.40
7117;DHT22;3600;48.568;7.870;2023-04-15T16:30:56;14.70;70.40
7117;DHT22;3600;48.568;7.870;2023-04-15T16:33:23;14.70;73.80
7117;DHT22;3600;48.568;7.870;2023-04-15T16:35:50;14.50;80.90
7117;DHT22;3600;48.568;7.870;2023-04-15T16:38:17;14.40;84.50
7117;DHT22;3600;48.568;7.870;2023-04-15T16:40:45;14.40;84.50
7117;DHT22;3600;48.568;7.870;2023-04-15T16:43:12;14.20;88.20
7117;DHT22;3600;48.568;7.870;2023-04-15T16:45:39;14.10;89.80
7117;DHT22;3600;48.568;7.870;2023-04-15T16:48:06;13.90;90.40
7117;DHT22;3600;48.568;7.870;2023-04-15T16:50:35;13.90;90.60
7117;DHT22;3600;48.568;7.870;2023-04-15T16:53:02;13.90;90.80
7117;DHT22;3600;48.568;7.870;2023-04-15T16:55:29;14.00;90.80
7117;DHT22;3600;48.568;7.870;2023-04-15T16:57:56;13.90;91.10
7117;DHT22;3600;48.568;7.870;2023-04-15T17:00:29;13.70;91.80
7117;DHT22;3600;48.568;7.870;2023-04-15T17:02:57;13.70;91.70
7117;DHT22;3600;48.568;7.870;2023-04-15T17:05:24;13.70;91.60
7117;DHT22;3600;48.568;7.870;2023-04-15T17:07:53;13.60;92.30
7117;DHT22;3600;48.568;7.870;2023-04-15T17:10:20;13.50;92.00
7117;DHT22;3600;48.568;7.870;2023-04-15T17:12:47;13.50;92.30
7117;DHT22;3600;48.568;7.870;2023-04-15T17:15:15;13.40;92.20
7117;DHT22;3600;48.568;7.870;2023-04-15T17:17:42;13.40;92.40
7117;DHT22;3600;48.568;7.870;2023-04-15T17:20:09;13.50;92.50